createdAt,value
2023-03-26T00:00:05.563Z,91979.41
2023-03-26T00:02:35.213Z,91981.19
2023-03-26T00:05:05.404Z,91977.06
2023-03-26T00:07:36.452Z,91983.13
2023-03-26T00:10:07.066Z,91981.38
2023-03-26T00:12:36.472Z,91986.31
2023-03-26T00:15:06.750Z,91971.34
2023-03-26T00:17:36.087Z,91981.84
2023-03-26T00:20:08.391Z,91976.16
2023-03-26T00:22:39.274Z,91975.47
2023-03-26T00:25:09.976Z,91972.78
2023-03-26T00:27:39.497Z,91971.47
2023-03-26T00:30:10.958Z,91970.41
2023-03-26T00:32:40.414Z,91962.63
2023-03-26T00:35:11.243Z,91956.47
2023-03-26T00:37:43.493Z,91952.94
2023-03-26T00:40:14.279Z,91952.47
2023-03-26T00:42:43.684Z,91960.84
2023-03-26T00:45:13.979Z,91975.38
2023-03-26T00:50:16.837Z,91982.78
2023-03-26T00:52:47.119Z,91968.75
2023-03-26T00:55:17.686Z,91980.19
2023-03-26T00:57:47.144Z,91974.38
2023-03-26T01:00:21.275Z,91973.00
2023-03-26T01:02:50.689Z,91975.59
2023-03-26T01:05:54.109Z,91979.47
2023-03-26T01:08:33.003Z,91982.56
2023-03-26T01:11:14.461Z,91974.88
2023-03-26T01:13:50.171Z,91981.13
2023-03-26T01:16:27.781Z,91984.91
2023-03-26T01:18:58.948Z,91987.97
2023-03-26T01:21:34.648Z,91987.97
2023-03-26T01:24:07.712Z,91978.53
2023-03-26T01:27:20.412Z,91982.56
2023-03-26T01:29:56.952Z,91990.31
2023-03-26T01:32:49.797Z,92002.34
2023-03-26T01:35:34.253Z,92024.81
2023-03-26T01:38:23.453Z,92031.91
2023-03-26T01:41:02.552Z,92038.84
2023-03-26T01:43:40.259Z,92035.50
2023-03-26T01:46:13.538Z,92037.78
2023-03-26T01:48:45.517Z,92054.66
2023-03-26T01:51:28.165Z,92041.81
2023-03-26T01:53:59.551Z,92029.19
2023-03-26T01:56:40.511Z,92021.91
2023-03-26T01:59:28.989Z,92000.16
2023-03-26T02:02:15.657Z,91994.88
2023-03-26T02:04:55.882Z,91993.72
2023-03-26T02:07:34.785Z,92004.47
2023-03-26T02:10:10.650Z,92010.88
2023-03-26T02:12:41.250Z,92008.75
2023-03-26T02:15:12.799Z,92014.44
2023-03-26T02:17:43.581Z,92018.22
2023-03-26T02:20:15.396Z,92009.22
2023-03-26T02:22:46.166Z,92000.25
2023-03-26T02:25:19.422Z,92005.22
2023-03-26T02:27:50.541Z,91996.97
2023-03-26T02:30:25.962Z,91992.13
2023-03-26T02:32:59.567Z,91985.72
2023-03-26T02:35:29.137Z,91995.53
2023-03-26T02:37:58.494Z,91989.63
2023-03-26T02:40:27.909Z,91992.66
2023-03-26T02:42:57.314Z,91986.06
2023-03-26T02:45:26.923Z,91993.63
2023-03-26T02:47:57.792Z,92003.06
2023-03-26T02:50:27.371Z,92005.84
2023-03-26T02:52:56.814Z,92011.72
2023-03-26T02:55:26.394Z,92015.00
2023-03-26T02:57:56.616Z,92012.84
2023-03-26T03:00:26.243Z,92004.16
2023-03-26T03:02:58.188Z,92005.31
2023-03-26T03:05:29.009Z,92011.88
2023-03-26T03:07:58.324Z,92007.84
2023-03-26T03:10:32.858Z,92004.91
2023-03-26T03:13:02.329Z,92007.94
2023-03-26T03:15:31.752Z,92012.75
2023-03-26T03:18:02.561Z,92013.38
2023-03-26T03:20:35.373Z,92019.38
2023-03-26T03:23:05.097Z,92025.59
2023-03-26T03:25:34.497Z,92024.44
2023-03-26T03:28:03.852Z,92021.00
2023-03-26T03:30:33.128Z,92014.84
2023-03-26T03:33:04.374Z,92012.91
2023-03-26T03:35:34.282Z,92018.19
2023-03-26T03:38:03.700Z,92018.91
2023-03-26T03:40:33.021Z,92015.50
2023-03-26T03:43:02.375Z,92012.13
2023-03-26T03:45:31.664Z,92014.09
2023-03-26T03:51:16.557Z,92017.25
2023-03-26T03:53:46.358Z,92023.19
2023-03-26T03:56:17.714Z,92026.78
2023-03-26T03:58:49.932Z,92026.81
2023-03-26T04:01:23.005Z,92026.09
2023-03-26T04:03:52.586Z,92042.75
2023-03-26T04:06:25.461Z,92044.50
2023-03-26T04:08:54.474Z,92045.34
2023-03-26T04:11:24.029Z,92039.31
2023-03-26T04:13:53.591Z,92047.09
2023-03-26T04:16:23.127Z,92050.00
2023-03-26T04:18:52.474Z,92045.47
2023-03-26T04:21:24.512Z,92052.41
2023-03-26T04:23:54.439Z,92049.81
2023-03-26T04:26:24.413Z,92051.69
2023-03-26T04:28:58.019Z,92042.16
2023-03-26T04:31:30.622Z,92039.47
2023-03-26T04:34:08.773Z,92047.53
2023-03-26T04:36:40.895Z,92048.06
2023-03-26T04:39:15.050Z,92049.41
2023-03-26T04:41:44.366Z,92049.81
2023-03-26T04:44:15.798Z,92054.78
2023-03-26T04:46:45.472Z,92057.56
2023-03-26T04:49:14.855Z,92059.03
2023-03-26T04:51:47.083Z,92061.28
2023-03-26T04:54:19.548Z,92072.72
2023-03-26T04:56:54.398Z,92075.06
2023-03-26T04:59:30.422Z,92079.84
2023-03-26T05:02:00.358Z,92066.66
2023-03-26T05:04:30.859Z,92073.19
2023-03-26T05:07:02.421Z,92073.19
2023-03-26T05:09:32.042Z,92075.94
2023-03-26T05:12:01.422Z,92093.03
2023-03-26T05:14:30.818Z,92088.09
2023-03-26T05:17:00.263Z,92094.47
2023-03-26T05:19:29.598Z,92092.59
2023-03-26T05:22:00.332Z,92082.75
2023-03-26T05:24:29.669Z,92090.81
2023-03-26T05:26:59.016Z,92098.16
2023-03-26T05:29:28.596Z,92074.50
2023-03-26T05:31:58.039Z,92086.53
2023-03-26T05:34:27.344Z,92082.63
2023-03-26T05:36:57.666Z,92085.31
2023-03-26T05:39:30.115Z,92089.97
2023-03-26T05:41:59.451Z,92093.22
2023-03-26T05:44:28.891Z,92094.56
2023-03-26T05:46:58.224Z,92096.88
2023-03-26T05:49:27.881Z,92097.03
2023-03-26T05:51:57.213Z,92099.41
2023-03-26T05:54:28.259Z,92100.88
2023-03-26T05:56:57.743Z,92098.41
2023-03-26T05:59:27.292Z,92094.53
2023-03-26T06:01:56.673Z,92088.84
2023-03-26T06:04:26.109Z,92087.53
2023-03-26T06:06:57.253Z,92103.88
2023-03-26T06:09:28.112Z,92108.47
2023-03-26T06:11:57.324Z,92094.34
2023-03-26T06:14:26.750Z,92086.38
2023-03-26T06:16:56.181Z,92096.03
2023-03-26T06:19:25.990Z,92090.09
2023-03-26T06:21:55.343Z,92083.50
2023-03-26T06:24:24.694Z,92082.91
2023-03-26T06:26:55.508Z,92086.41
2023-03-26T06:29:24.928Z,92104.13
2023-03-26T06:31:54.296Z,92104.69
2023-03-26T06:34:23.651Z,92111.03
2023-03-26T06:36:53.340Z,92104.84
2023-03-26T06:39:23.298Z,92101.56
2023-03-26T06:41:54.133Z,92100.31
2023-03-26T06:44:23.397Z,92102.41
2023-03-26T06:46:52.988Z,92110.78
2023-03-26T06:51:16.560Z,92103.25
2023-03-26T06:53:45.966Z,92099.34
2023-03-26T06:56:15.276Z,92109.84
2023-03-26T06:58:44.638Z,92111.22
2023-03-26T07:01:14.132Z,92113.53
2023-03-26T07:03:43.469Z,92127.72
2023-03-26T07:06:14.339Z,92126.31
2023-03-26T07:08:43.713Z,92135.28
2023-03-26T07:11:13.182Z,92131.81
2023-03-26T07:13:46.076Z,92147.59
2023-03-26T07:16:15.882Z,92147.75
2023-03-26T07:18:45.376Z,92152.31
2023-03-26T07:21:17.577Z,92158.47
2023-03-26T07:23:47.996Z,92149.19
2023-03-26T07:26:30.769Z,92153.25
2023-03-26T07:29:06.215Z,92154.91
2023-03-26T07:31:47.440Z,92160.38
2023-03-26T07:34:34.029Z,92169.81
2023-03-26T07:37:13.663Z,92171.47
2023-03-26T07:39:57.831Z,92158.72
2023-03-26T07:42:44.743Z,92173.97
2023-03-26T07:45:26.006Z,92165.91
2023-03-26T07:47:57.302Z,92158.53
2023-03-26T07:50:27.963Z,92150.78
2023-03-26T07:52:59.805Z,92150.03
2023-03-26T07:55:29.882Z,92152.41
2023-03-26T07:58:15.352Z,92174.97
2023-03-26T08:00:50.541Z,92168.69
2023-03-26T08:03:38.420Z,92163.28
2023-03-26T08:06:17.043Z,92165.63
2023-03-26T08:08:58.428Z,92156.78
2023-03-26T08:11:39.481Z,92161.66
2023-03-26T08:14:24.873Z,92164.22
2023-03-26T08:17:00.300Z,92174.44
2023-03-26T08:19:45.841Z,92170.53
2023-03-26T08:22:26.503Z,92166.38
2023-03-26T08:25:21.749Z,92174.25
2023-03-26T08:28:18.919Z,92172.91
2023-03-26T08:30:48.670Z,92164.84
2023-03-26T08:33:21.653Z,92183.47
2023-03-26T08:35:51.816Z,92170.91
2023-03-26T08:38:22.741Z,92168.19
2023-03-26T08:41:36.949Z,92171.72
2023-03-26T08:45:19.224Z,92166.03
2023-03-26T08:48:51.828Z,92153.63
2023-03-26T08:52:30.698Z,92158.09
2023-03-26T08:55:35.287Z,92153.41
2023-03-26T08:58:52.149Z,92150.59
2023-03-26T09:02:04.971Z,92151.34
2023-03-26T09:05:21.574Z,92148.38
2023-03-26T09:09:00.571Z,92146.78
2023-03-26T09:12:42.762Z,92147.72
2023-03-26T09:15:53.120Z,92145.75
2023-03-26T09:19:17.826Z,92147.31
2023-03-26T09:23:00.129Z,92148.06
2023-03-26T09:25:58.216Z,92146.38
2023-03-26T09:29:26.193Z,92146.56
2023-03-26T09:32:49.585Z,92154.19
2023-03-26T09:35:54.197Z,92144.91
2023-03-26T09:38:49.672Z,92152.41
2023-03-26T09:41:23.087Z,92154.22
2023-03-26T09:44:43.704Z,92148.44
2023-03-26T09:47:38.933Z,92149.84
2023-03-26T09:51:43.645Z,92139.41
2023-03-26T09:54:46.693Z,92133.97
2023-03-26T09:57:22.398Z,92129.56
2023-03-26T10:00:18.775Z,92126.69
2023-03-26T10:03:21.319Z,92121.97
2023-03-26T10:06:04.368Z,92120.28
2023-03-26T10:08:52.428Z,92110.16
2023-03-26T10:11:33.807Z,92131.06
2023-03-26T10:14:14.286Z,92126.38
2023-03-26T10:17:01.591Z,92119.25
2023-03-26T10:19:48.660Z,92116.09
2023-03-26T10:22:47.202Z,92121.38
2023-03-26T10:25:52.481Z,92117.44
2023-03-26T10:28:54.320Z,92126.47
2023-03-26T10:31:41.892Z,92126.44
2023-03-26T10:34:33.068Z,92115.72
2023-03-26T10:37:14.811Z,92113.09
2023-03-26T10:40:16.382Z,92106.47
2023-03-26T10:43:16.269Z,92100.91
2023-03-26T10:46:20.329Z,92102.94
2023-03-26T10:49:22.142Z,92096.69
2023-03-26T10:51:56.629Z,92095.03
2023-03-26T10:54:41.490Z,92090.03
2023-03-26T10:57:36.031Z,92093.88
2023-03-26T11:00:23.538Z,92087.16
2023-03-26T11:03:20.402Z,92076.31
2023-03-26T11:06:00.965Z,92093.72
2023-03-26T11:08:41.594Z,92086.78
2023-03-26T11:11:23.441Z,92097.47
2023-03-26T11:14:02.375Z,92095.00
2023-03-26T11:16:47.806Z,92100.09
2023-03-26T11:19:25.556Z,92104.56
2023-03-26T11:22:04.173Z,92107.00
2023-03-26T11:25:19.534Z,92097.97
2023-03-26T11:28:12.222Z,92107.50
2023-03-26T11:30:50.175Z,92094.28
2023-03-26T11:33:26.247Z,92094.38
2023-03-26T11:36:08.413Z,92093.56
2023-03-26T11:38:43.878Z,92094.22
2023-03-26T11:41:22.979Z,92092.84
2023-03-26T11:43:57.101Z,92086.53
2023-03-26T11:46:28.968Z,92080.59
2023-03-26T11:49:01.777Z,92079.78
2023-03-26T11:51:35.135Z,92076.81
2023-03-26T11:54:06.011Z,92074.66
2023-03-26T11:56:39.184Z,92084.13
2023-03-26T11:59:14.364Z,92084.28
2023-03-26T12:01:51.255Z,92084.47
2023-03-26T12:04:30.710Z,92080.56
2023-03-26T12:07:11.295Z,92070.81
2023-03-26T12:09:50.872Z,92063.09
2023-03-26T12:12:21.236Z,92068.41
2023-03-26T12:14:50.995Z,92055.34
2023-03-26T12:17:32.055Z,92061.88
2023-03-26T12:20:07.776Z,92064.75
2023-03-26T12:22:43.571Z,92055.94
2023-03-26T12:25:20.594Z,92051.31
2023-03-26T12:27:53.004Z,92055.28
2023-03-26T12:30:23.773Z,92048.25
2023-03-26T12:32:57.516Z,92047.31
2023-03-26T12:35:36.828Z,92051.16
2023-03-26T12:38:29.320Z,92052.47
2023-03-26T12:42:36.596Z,92044.22
2023-03-26T12:44:55.268Z,92047.69
2023-03-26T12:47:59.725Z,92043.63
2023-03-26T12:51:30.196Z,92032.47
2023-03-26T12:54:20.126Z,92035.81
2023-03-26T12:57:12.773Z,92036.56
2023-03-26T13:00:00.454Z,92038.44
2023-03-26T13:03:01.392Z,92032.06
2023-03-26T13:05:45.053Z,92039.19
2023-03-26T13:08:57.676Z,92027.19
2023-03-26T13:11:38.631Z,92024.31
2023-03-26T13:14:36.912Z,92023.03
2023-03-26T13:17:14.700Z,92026.78
2023-03-26T13:19:54.729Z,92023.03
2023-03-26T13:22:32.880Z,92018.13
2023-03-26T13:25:23.703Z,92014.69
2023-03-26T13:28:03.416Z,92003.53
2023-03-26T13:30:41.718Z,92007.53
2023-03-26T13:33:38.372Z,91999.13
2023-03-26T13:36:23.689Z,91997.59
2023-03-26T13:39:14.288Z,92008.16
2023-03-26T13:42:04.414Z,92008.69
2023-03-26T13:44:47.546Z,92012.47
2023-03-26T13:47:21.333Z,92004.41
2023-03-26T13:49:56.887Z,92075.28
2023-03-26T13:52:31.772Z,92015.16
2023-03-26T13:55:20.117Z,92014.66
2023-03-26T13:57:59.544Z,92011.84
2023-03-26T14:00:38.281Z,92014.81
2023-03-26T14:03:17.966Z,92017.97
2023-03-26T14:05:50.196Z,92013.88
2023-03-26T14:08:26.279Z,92021.44
2023-03-26T14:11:06.469Z,92014.53
2023-03-26T14:13:45.251Z,92012.56
2023-03-26T14:16:20.197Z,92015.03
2023-03-26T14:18:56.337Z,92011.25
2023-03-26T14:21:49.189Z,92019.16
2023-03-26T14:25:03.350Z,92015.19
2023-03-26T14:28:28.666Z,92008.59
2023-03-26T14:31:19.810Z,92009.75
2023-03-26T14:34:12.879Z,92012.38
2023-03-26T14:37:07.438Z,92017.06
2023-03-26T14:40:14.985Z,92016.41
2023-03-26T14:42:55.980Z,92025.06
2023-03-26T14:45:53.782Z,92013.38
2023-03-26T14:48:49.513Z,92016.13
2023-03-26T14:51:44.378Z,92008.38
2023-03-26T14:54:18.969Z,92015.44
2023-03-26T14:57:13.828Z,92006.72
2023-03-26T15:00:28.913Z,92006.53
2023-03-26T15:04:00.980Z,92011.91
2023-03-26T15:07:15.798Z,92011.69
2023-03-26T15:10:29.965Z,92002.81
2023-03-26T15:13:39.574Z,92003.44
2023-03-26T15:16:28.432Z,92006.34
2023-03-26T15:19:56.701Z,92000.22
2023-03-26T15:23:24.750Z,91998.72
2023-03-26T15:26:45.644Z,92003.50
2023-03-26T15:30:17.552Z,92004.75
2023-03-26T15:33:47.457Z,92003.31
2023-03-26T15:37:02.631Z,91996.69
2023-03-26T15:40:08.188Z,92001.03
2023-03-26T15:42:54.981Z,92007.38
2023-03-26T15:45:38.106Z,92001.53
2023-03-26T15:51:47.290Z,92016.81
2023-03-26T15:54:30.056Z,92013.25
2023-03-26T15:57:20.190Z,92015.56
2023-03-26T16:00:15.552Z,92009.84
2023-03-26T16:03:00.908Z,92019.13
2023-03-26T16:06:02.462Z,92012.06
2023-03-26T16:08:46.993Z,92016.38
2023-03-26T16:11:16.969Z,92015.59
2023-03-26T16:13:52.173Z,92018.63
2023-03-26T16:16:56.283Z,92020.25
2023-03-26T16:19:58.943Z,92025.47
2023-03-26T16:22:56.307Z,92020.53
2023-03-26T16:25:34.248Z,92026.25
2023-03-26T16:28:33.757Z,92023.25
2023-03-26T16:31:38.092Z,92031.09
2023-03-26T16:34:31.732Z,92024.34
2023-03-26T16:37:01.994Z,92032.41
2023-03-26T16:39:49.466Z,92030.28
2023-03-26T16:42:38.687Z,92039.78
2023-03-26T16:45:24.444Z,92045.06
2023-03-26T16:48:03.455Z,92045.47
2023-03-26T16:50:46.408Z,92043.53
2023-03-26T16:53:30.036Z,92047.34
2023-03-26T16:56:05.472Z,92048.38
2023-03-26T16:58:53.988Z,92050.72
2023-03-26T17:01:36.720Z,92052.91
2023-03-26T17:04:08.712Z,92053.34
2023-03-26T17:07:15.244Z,92058.28
2023-03-26T17:10:00.745Z,92065.53
2023-03-26T17:12:38.635Z,92067.56
2023-03-26T17:15:29.696Z,92070.47
2023-03-26T17:18:37.519Z,92077.78
2023-03-26T17:21:16.708Z,92081.78
2023-03-26T17:24:15.553Z,92085.25
2023-03-26T17:26:57.759Z,92089.19
2023-03-26T17:29:35.571Z,92092.69
2023-03-26T17:32:11.845Z,92085.50
2023-03-26T17:34:57.690Z,92088.81
2023-03-26T17:37:45.887Z,92098.53
2023-03-26T17:40:54.798Z,92099.34
2023-03-26T17:43:45.407Z,92108.78
2023-03-26T17:46:35.714Z,92110.22
2023-03-26T17:49:16.569Z,92103.22
2023-03-26T17:51:52.972Z,92110.16
2023-03-26T17:54:28.676Z,92095.03
2023-03-26T17:57:04.053Z,92104.63
2023-03-26T17:59:35.887Z,92099.19
2023-03-26T18:02:09.435Z,92094.88
2023-03-26T18:04:42.017Z,92084.44
2023-03-26T18:07:58.191Z,92089.28
2023-03-26T18:10:48.206Z,92103.06
2023-03-26T18:14:18.662Z,92100.34
2023-03-26T18:16:50.755Z,92106.69
2023-03-26T18:19:23.056Z,92113.19
2023-03-26T18:21:57.037Z,92108.41
2023-03-26T18:24:31.509Z,92108.06
2023-03-26T18:27:04.868Z,92117.22
2023-03-26T18:29:36.605Z,92118.28
2023-03-26T18:32:23.034Z,92120.75
2023-03-26T18:34:58.399Z,92115.44
2023-03-26T18:37:33.709Z,92112.84
2023-03-26T18:40:12.177Z,92110.72
2023-03-26T18:42:45.457Z,92114.81
2023-03-26T18:45:27.070Z,92120.00
2023-03-26T18:51:23.136Z,92109.94
2023-03-26T18:53:55.608Z,92109.94
2023-03-26T18:56:35.354Z,92111.09
2023-03-26T18:59:28.455Z,92112.63
2023-03-26T19:02:00.141Z,92105.91
2023-03-26T19:04:33.689Z,92102.59
2023-03-26T19:07:06.812Z,92106.59
2023-03-26T19:09:36.476Z,92111.53
2023-03-26T19:12:09.972Z,92107.19
2023-03-26T19:14:57.370Z,92101.28
2023-03-26T19:17:31.721Z,92097.03
2023-03-26T19:20:01.452Z,92101.59
2023-03-26T19:22:33.176Z,92094.78
2023-03-26T19:25:05.608Z,92102.06
2023-03-26T19:27:38.642Z,92101.66
2023-03-26T19:30:11.553Z,92103.41
2023-03-26T19:32:40.821Z,92099.19
2023-03-26T19:35:24.485Z,92103.63
2023-03-26T19:37:58.491Z,92096.09
2023-03-26T19:40:30.349Z,92096.09
2023-03-26T19:43:00.576Z,92095.16
2023-03-26T19:45:31.090Z,92098.56
2023-03-26T19:48:14.381Z,92092.44
2023-03-26T19:50:55.413Z,92097.19
2023-03-26T19:53:33.958Z,92103.41
2023-03-26T19:56:14.703Z,92104.34
2023-03-26T19:58:45.153Z,92106.84
2023-03-26T20:01:19.957Z,92103.41
2023-03-26T20:03:52.992Z,92094.81
2023-03-26T20:06:41.755Z,92102.91
2023-03-26T20:12:01.409Z,92104.06
2023-03-26T20:14:32.830Z,92094.03
2023-03-26T20:17:02.456Z,92094.13
2023-03-26T20:19:32.014Z,92097.31
2023-03-26T20:22:01.561Z,92092.75
2023-03-26T20:24:33.728Z,92097.72
2023-03-26T20:27:03.191Z,92094.34
2023-03-26T20:29:33.148Z,92093.00
2023-03-26T20:32:03.940Z,92095.72
2023-03-26T20:34:33.780Z,92085.66
2023-03-26T20:37:03.179Z,92082.56
2023-03-26T20:39:33.971Z,92088.09
2023-03-26T20:42:03.333Z,92079.81
2023-03-26T20:44:32.781Z,92078.56
2023-03-26T20:47:02.186Z,92076.28
2023-03-26T20:49:32.600Z,92073.09
2023-03-26T20:52:02.230Z,92076.00
2023-03-26T20:54:33.335Z,92073.22
2023-03-26T20:57:02.590Z,92070.31
2023-03-26T20:59:32.670Z,92062.03
2023-03-26T21:02:02.134Z,92064.09
2023-03-26T21:04:32.351Z,92059.16
2023-03-26T21:07:10.902Z,92061.22
2023-03-26T21:09:49.449Z,92054.38
2023-03-26T21:12:29.696Z,92050.88
2023-03-26T21:15:00.528Z,92046.91
2023-03-26T21:17:32.289Z,92042.25
2023-03-26T21:20:11.964Z,92044.44
2023-03-26T21:22:49.005Z,92044.13
2023-03-26T21:25:35.289Z,92045.38
2023-03-26T21:28:35.733Z,92047.34
2023-03-26T21:31:18.697Z,92036.56
2023-03-26T21:33:49.821Z,92040.72
2023-03-26T21:36:21.582Z,92042.69
2023-03-26T21:38:54.808Z,92040.41
2023-03-26T21:41:41.398Z,92039.88
2023-03-26T21:44:11.148Z,92036.66
2023-03-26T21:46:44.365Z,92033.44
2023-03-26T21:51:19.102Z,92043.13
2023-03-26T21:53:50.264Z,92043.44
2023-03-26T21:56:34.374Z,92042.84
2023-03-26T21:59:15.114Z,92038.50
2023-03-26T22:01:51.365Z,92043.66
2023-03-26T22:04:30.917Z,92041.38
2023-03-26T22:07:06.871Z,92034.75
2023-03-26T22:09:36.894Z,92035.66
2023-03-26T22:12:07.246Z,92032.25
2023-03-26T22:14:36.475Z,92041.69
2023-03-26T22:17:06.352Z,92034.13
2023-03-26T22:19:36.103Z,92032.78
2023-03-26T22:22:06.995Z,92030.56
2023-03-26T22:24:36.277Z,92024.69
2023-03-26T22:27:05.875Z,92018.47
2023-03-26T22:29:35.416Z,92021.56
2023-03-26T22:32:04.880Z,92019.50
2023-03-26T22:34:35.182Z,92004.50
2023-03-26T22:37:06.840Z,92002.41
2023-03-26T22:39:36.352Z,92009.50
2023-03-26T22:42:06.174Z,92000.22
2023-03-26T22:44:35.789Z,91997.84
2023-03-26T22:47:05.213Z,91993.78
2023-03-26T22:49:34.666Z,91992.44
2023-03-26T22:52:05.808Z,91993.56
2023-03-26T22:54:36.645Z,91986.28
2023-03-26T22:57:06.118Z,91978.66
2023-03-26T22:59:35.454Z,91983.00
2023-03-26T23:02:04.757Z,91981.53
2023-03-26T23:04:34.338Z,91974.69
2023-03-26T23:07:05.542Z,91973.31
2023-03-26T23:09:35.060Z,91963.41
2023-03-26T23:12:04.493Z,91963.47
2023-03-26T23:14:34.068Z,91955.22
2023-03-26T23:17:03.847Z,91959.34
2023-03-26T23:19:34.272Z,91958.81
2023-03-26T23:22:03.643Z,91954.56
2023-03-26T23:24:34.450Z,91960.66
2023-03-26T23:27:03.852Z,91966.75
2023-03-26T23:29:33.762Z,91965.94
2023-03-26T23:32:24.616Z,91956.44
2023-03-26T23:34:55.995Z,91953.91
2023-03-26T23:37:25.654Z,91944.66
2023-03-26T23:39:56.484Z,91935.16
2023-03-26T23:42:28.586Z,91925.75
2023-03-26T23:44:59.034Z,91918.09
2023-03-26T23:47:34.780Z,91917.19
2023-03-26T23:50:05.537Z,91917.38
2023-03-26T23:52:34.906Z,91910.56
2023-03-26T23:55:06.411Z,91906.53
2023-03-26T23:57:37.216Z,91905.41
